Time;durP1;ratioP1;P1;durP2;ratioP2;P2;SDS_P1;SDS_P2;PMS_P1;PMS_P2;Temp;Humidity;BMP_temperature;BMP_pressure;BME280_temperature;BME280_humidity;BME280_pressure;Samples;Min_cycle;Max_cycle;Signal;HPM_P1;HPM_P2
2023/06/21 00:00:13;;;;;;;3.28;2.70;;;;;;;;;;620657;23;913;-75
2023/06/21 00:00:30;;;;;;;2.88;2.58;;;;;;;;;;624708;23;1309;-75
2023/06/21 00:00:55;;;;;;;3.20;2.70;;;;;;;;;;621569;23;1425;-75
2023/06/21 00:01:17;;;;;;;4.07;2.80;;;;;;;;;;616635;23;1257;-75
2023/06/21 00:01:45;;;;;;;4.88;3.17;;;;;;;;;;613317;23;1527;-75
2023/06/21 00:02:04;;;;;;;3.92;2.90;;;;;;;;;;622129;23;1233;-75
2023/06/21 00:02:20;;;;;;;3.22;2.70;;;;;;;;;;616168;23;1206;-75
2023/06/21 00:02:35;;;;;;;3.00;2.70;;;;;;;;;;622987;23;1124;-75
2023/06/21 00:02:51;;;;;;;4.30;2.80;;;;;;;;;;611933;23;1384;-75
2023/06/21 00:03:10;;;;;;;4.53;2.80;;;;;;;;;;610337;23;1300;-76
2023/06/21 00:03:25;;;;;;;3.80;2.60;;;;;;;;;;614027;23;1134;-75
2023/06/21 00:03:41;;;;;;;4.00;2.60;;;;;;;;;;617829;23;792;-76
2023/06/21 00:03:59;;;;;;;3.90;2.80;;;;;;;;;;616129;23;1228;-74
2023/06/21 00:04:14;;;;;;;4.78;2.80;;;;;;;;;;611273;23;1249;-75
2023/06/21 00:04:30;;;;;;;5.23;2.83;;;;;;;;;;621422;23;1353;-75
2023/06/21 00:04:48;;;;;;;4.93;2.97;;;;;;;;;;617586;23;1446;-75
2023/06/21 00:05:11;;;;;;;4.43;3.03;;;;;;;;;;621082;23;1589;-74
2023/06/21 00:05:26;;;;;;;4.70;3.25;;;;;;;;;;623929;23;1334;-76
2023/06/21 00:05:42;;;;;;;4.68;3.20;;;;;;;;;;623092;23;815;-76
2023/06/21 00:05:57;;;;;;;4.70;3.10;;;;;;;;;;623509;23;1227;-75
2023/06/21 00:06:13;;;;;;;4.13;2.90;;;;;;;;;;610570;23;1408;-75
2023/06/21 00:06:29;;;;;;;3.97;2.95;;;;;;;;;;621519;23;1355;-73
2023/06/21 00:06:49;;;;;;;5.40;3.20;;;;;;;;;;615840;23;1233;-76
2023/06/21 00:07:16;;;;;;;5.03;3.15;;;;;;;;;;613385;23;1175;-76
2023/06/21 00:07:31;;;;;;;4.50;3.00;;;;;;;;;;615178;23;1319;-74
2023/06/21 00:07:52;;;;;;;3.85;2.80;;;;;;;;;;614484;23;1921;-74
2023/06/21 00:08:16;;;;;;;5.55;2.88;;;;;;;;;;617604;23;1482;-74
2023/06/21 00:08:32;;;;;;;4.60;2.80;;;;;;;;;;620960;23;1538;-76
2023/06/21 00:08:51;;;;;;;4.20;2.70;;;;;;;;;;617515;23;1579;-74
2023/06/21 00:09:18;;;;;;;3.30;2.85;;;;;;;;;;618025;23;1481;-74
2023/06/21 00:09:37;;;;;;;3.20;2.60;;;;;;;;;;622259;23;1450;-76
2023/06/21 00:09:56;;;;;;;3.30;2.70;;;;;;;;;;624060;23;1433;-76
2023/06/21 00:10:13;;;;;;;4.03;2.65;;;;;;;;;;619362;23;1403;-74
2023/06/21 00:10:30;;;;;;;4.60;2.88;;;;;;;;;;621127;23;1534;-73
2023/06/21 00:10:45;;;;;;;4.13;2.92;;;;;;;;;;618758;23;1162;-74
2023/06/21 00:11:01;;;;;;;3.90;2.65;;;;;;;;;;619445;23;1213;-73
2023/06/21 00:11:29;;;;;;;4.50;2.70;;;;;;;;;;607344;23;1067;-75
2023/06/21 00:11:48;;;;;;;5.88;3.00;;;;;;;;;;615907;23;1149;-74
2023/06/21 00:12:14;;;;;;;4.05;2.75;;;;;;;;;;617189;23;1355;-75
2023/06/21 00:12:30;;;;;;;3.75;2.80;;;;;;;;;;617494;23;1157;-74
2023/06/21 00:12:56;;;;;;;3.45;2.70;;;;;;;;;;616153;23;1015;-74
2023/06/21 00:13:11;;;;;;;3.95;2.78;;;;;;;;;;617862;23;1533;-74
2023/06/21 00:13:27;;;;;;;4.63;2.80;;;;;;;;;;622273;23;1303;-74
2023/06/21 00:13:52;;;;;;;5.13;2.80;;;;;;;;;;621556;23;1416;-75
2023/06/21 00:14:08;;;;;;;4.05;2.97;;;;;;;;;;622818;23;1472;-75
2023/06/21 00:14:24;;;;;;;4.53;2.90;;;;;;;;;;623437;23;1242;-75
2023/06/21 00:14:40;;;;;;;3.72;2.65;;;;;;;;;;622427;23;1467;-74
2023/06/21 00:14:56;;;;;;;3.85;2.50;;;;;;;;;;616159;23;1430;-74
2023/06/21 00:15:12;;;;;;;4.80;2.77;;;;;;;;;;610418;23;1209;-76
2023/06/21 00:15:28;;;;;;;3.67;2.75;;;;;;;;;;617021;23;1363;-74
2023/06/21 00:15:44;;;;;;;3.45;2.60;;;;;;;;;;615860;23;1229;-75
2023/06/21 00:16:00;;;;;;;3.67;2.50;;;;;;;;;;619160;23;1566;-74
2023/06/21 00:16:16;;;;;;;3.50;2.67;;;;;;;;;;614280;23;820;-74
2023/06/21 00:16:31;;;;;;;3.42;2.80;;;;;;;;;;619689;23;1561;-74
2023/06/21 00:16:50;;;;;;;5.25;2.80;;;;;;;;;;616337;23;1193;-76
2023/06/21 00:17:16;;;;;;;5.07;2.70;;;;;;;;;;618348;23;1580;-76
2023/06/21 00:17:32;;;;;;;3.60;2.65;;;;;;;;;;623325;23;1417;-76
2023/06/21 00:17:58;;;;;;;4.78;2.80;;;;;;;;;;622489;23;1534;-74
2023/06/21 00:18:14;;;;;;;4.90;2.65;;;;;;;;;;616887;23;1049;-76
2023/06/21 00:18:30;;;;;;;4.93;2.80;;;;;;;;;;617889;23;1524;-76
2023/06/21 00:18:49;;;;;;;4.82;2.85;;;;;;;;;;616935;23;1228;-76
2023/06/21 00:19:13;;;;;;;5.38;2.70;;;;;;;;;;616647;23;1431;-76
2023/06/21 00:19:30;;;;;;;3.20;2.50;;;;;;;;;;618213;23;1575;-75
2023/06/21 00:19:47;;;;;;;2.95;2.42;;;;;;;;;;618813;23;1439;-75
2023/06/21 00:20:12;;;;;;;3.65;2.50;;;;;;;;;;619660;23;1344;-75
2023/06/21 00:20:28;;;;;;;4.20;2.78;;;;;;;;;;623169;23;1255;-73
2023/06/21 00:20:47;;;;;;;3.55;2.90;;;;;;;;;;623253;23;913;-75
2023/06/21 00:21:08;;;;;;;3.38;2.80;;;;;;;;;;624267;23;1505;-75
2023/06/21 00:21:24;;;;;;;3.75;2.88;;;;;;;;;;621698;23;1172;-75
2023/06/21 00:21:40;;;;;;;4.30;2.80;;;;;;;;;;627133;23;1278;-74
2023/06/21 00:21:57;;;;;;;3.40;2.65;;;;;;;;;;625246;23;1487;-75
2023/06/21 00:22:21;;;;;;;3.67;2.47;;;;;;;;;;619352;23;1071;-75
2023/06/21 00:22:40;;;;;;;3.97;2.80;;;;;;;;;;626060;23;1374;-75
2023/06/21 00:22:56;;;;;;;3.72;2.70;;;;;;;;;;625751;23;1446;-75
2023/06/21 00:23:12;;;;;;;3.72;2.63;;;;;;;;;;621259;23;1431;-75
2023/06/21 00:23:28;;;;;;;3.45;2.75;;;;;;;;;;621783;23;1374;-75
2023/06/21 00:23:44;;;;;;;4.00;2.70;;;;;;;;;;622146;23;1260;-76
2023/06/21 00:24:02;;;;;;;3.67;2.80;;;;;;;;;;618069;23;1071;-75
2023/06/21 00:24:18;;;;;;;3.38;2.70;;;;;;;;;;617773;23;1241;-74
2023/06/21 00:24:34;;;;;;;3.50;2.60;;;;;;;;;;619979;23;1611;-75
2023/06/21 00:24:51;;;;;;;4.13;2.88;;;;;;;;;;619676;23;1438;-74
2023/06/21 00:25:08;;;;;;;5.43;2.90;;;;;;;;;;617323;23;1421;-75
2023/06/21 00:25:24;;;;;;;4.63;2.70;;;;;;;;;;615678;23;1602;-75
2023/06/21 00:25:40;;;;;;;3.95;2.70;;;;;;;;;;620065;23;922;-74
2023/06/21 00:25:56;;;;;;;3.40;2.70;;;;;;;;;;614630;23;1021;-74
2023/06/21 00:26:17;;;;;;;3.30;2.70;;;;;;;;;;612163;23;1305;-75
2023/06/21 00:26:49;;;;;;;4.32;2.67;;;;;;;;;;619465;23;1502;-75
2023/06/21 00:27:17;;;;;;;4.65;2.70;;;;;;;;;;622281;23;1343;-76
2023/06/21 00:27:54;;;;;;;3.40;2.70;;;;;;;;;;625456;23;1526;-74
2023/06/21 00:28:30;;;;;;;4.07;2.88;;;;;;;;;;622820;23;1458;-75
2023/06/21 00:28:46;;;;;;;5.32;2.80;;;;;;;;;;626877;23;1270;-73
2023/06/21 00:29:13;;;;;;;4.90;2.70;;;;;;;;;;629528;23;863;-75
2023/06/21 00:29:32;;;;;;;3.55;2.78;;;;;;;;;;630303;23;862;-73
2023/06/21 00:29:47;;;;;;;3.22;2.60;;;;;;;;;;631210;23;1522;-73
2023/06/21 00:30:12;;;;;;;3.63;2.63;;;;;;;;;;627219;23;1269;-73
2023/06/21 00:30:28;;;;;;;3.95;2.85;;;;;;;;;;625844;23;1588;-76
2023/06/21 00:30:44;;;;;;;3.72;2.67;;;;;;;;;;626490;23;851;-73
2023/06/21 00:31:00;;;;;;;3.70;2.60;;;;;;;;;;622396;23;1509;-77
2023/06/21 00:31:16;;;;;;;4.65;2.80;;;;;;;;;;615917;23;839;-74
2023/06/21 00:31:32;;;;;;;4.80;2.90;;;;;;;;;;615702;23;1216;-73
2023/06/21 00:31:51;;;;;;;4.15;3.00;;;;;;;;;;616927;23;1600;-75
2023/06/21 00:32:10;;;;;;;4.00;2.80;;;;;;;;;;616108;23;1257;-74
2023/06/21 00:32:31;;;;;;;4.22;2.70;;;;;;;;;;620886;23;1595;-74
2023/06/21 00:32:47;;;;;;;4.13;2.70;;;;;;;;;;619679;23;1459;-74
2023/06/21 00:33:14;;;;;;;6.07;2.90;;;;;;;;;;618304;23;1390;-76
2023/06/21 00:33:29;;;;;;;4.13;2.80;;;;;;;;;;624482;23;906;-75
2023/06/21 00:33:45;;;;;;;4.63;2.83;;;;;;;;;;627294;23;1473;-74
2023/06/21 00:34:13;;;;;;;4.43;2.87;;;;;;;;;;627780;23;1049;-75
2023/06/21 00:34:29;;;;;;;5.45;2.75;;;;;;;;;;628220;23;1338;-73
2023/06/21 00:34:47;;;;;;;5.07;2.85;;;;;;;;;;628118;23;1235;-75
2023/06/21 00:35:21;;;;;;;4.95;2.80;;;;;;;;;;624333;23;1418;-76
2023/06/21 00:35:40;;;;;;;3.92;3.10;;;;;;;;;;624859;23;1505;-75
2023/06/21 00:36:25;;;;;;;4.63;2.83;;;;;;;;;;624817;23;1504;-76
2023/06/21 00:36:44;;;;;;;4.85;3.00;;;;;;;;;;623289;23;1206;-75
2023/06/21 00:37:02;;;;;;;4.65;2.80;;;;;;;;;;623624;23;1367;-75
2023/06/21 00:37:18;;;;;;;4.55;2.80;;;;;;;;;;621954;23;1022;-75
2023/06/21 00:37:34;;;;;;;4.78;2.72;;;;;;;;;;627495;23;1373;-75
2023/06/21 00:37:50;;;;;;;4.95;2.78;;;;;;;;;;622850;23;1373;-75
2023/06/21 00:38:12;;;;;;;5.45;2.85;;;;;;;;;;623389;23;1399;-75
2023/06/21 00:38:34;;;;;;;6.30;3.20;;;;;;;;;;626267;23;1427;-75
2023/06/21 00:38:50;;;;;;;6.38;3.20;;;;;;;;;;622836;23;1501;-74
2023/06/21 00:39:18;;;;;;;5.72;3.08;;;;;;;;;;620114;23;1334;-74
2023/06/21 00:39:34;;;;;;;4.28;3.00;;;;;;;;;;618447;23;1485;-75
2023/06/21 00:39:49;;;;;;;4.05;3.10;;;;;;;;;;622922;23;1276;-75
2023/06/21 00:40:12;;;;;;;3.90;3.10;;;;;;;;;;617198;23;1353;-75
2023/06/21 00:40:27;;;;;;;4.50;2.90;;;;;;;;;;620290;23;1276;-74
2023/06/21 00:40:43;;;;;;;4.80;3.03;;;;;;;;;;623528;23;1502;-75
2023/06/21 00:40:59;;;;;;;4.73;3.10;;;;;;;;;;620014;23;1224;-75
2023/06/21 00:41:15;;;;;;;4.20;3.10;;;;;;;;;;617397;23;1202;-74
2023/06/21 00:41:31;;;;;;;4.15;2.97;;;;;;;;;;623056;23;839;-74
2023/06/21 00:41:46;;;;;;;4.43;2.90;;;;;;;;;;623070;23;1230;-75
2023/06/21 00:42:11;;;;;;;6.17;3.10;;;;;;;;;;618450;23;1332;-74
2023/06/21 00:42:30;;;;;;;6.82;3.05;;;;;;;;;;622740;23;1542;-75
2023/06/21 00:42:46;;;;;;;5.40;2.80;;;;;;;;;;623974;23;1423;-75
2023/06/21 00:43:03;;;;;;;3.95;2.80;;;;;;;;;;620439;23;1264;-75
2023/06/21 00:43:20;;;;;;;3.95;2.80;;;;;;;;;;615313;23;1231;-75
2023/06/21 00:43:38;;;;;;;4.72;2.90;;;;;;;;;;620618;23;1598;-75
2023/06/21 00:43:54;;;;;;;3.45;2.90;;;;;;;;;;623069;23;1209;-75
2023/06/21 00:44:12;;;;;;;3.08;2.72;;;;;;;;;;611588;23;1710;-74
2023/06/21 00:44:28;;;;;;;3.47;2.70;;;;;;;;;;621671;23;1382;-74
2023/06/21 00:44:43;;;;;;;4.03;2.88;;;;;;;;;;622581;23;1409;-74
2023/06/21 00:44:59;;;;;;;3.57;2.90;;;;;;;;;;626314;23;1320;-74
2023/06/21 00:45:15;;;;;;;3.75;2.95;;;;;;;;;;620564;23;1224;-74
2023/06/21 00:45:39;;;;;;;4.75;2.90;;;;;;;;;;619835;23;1240;-77
2023/06/21 00:45:55;;;;;;;3.22;2.90;;;;;;;;;;619736;23;1244;-74
2023/06/21 00:46:15;;;;;;;3.78;3.00;;;;;;;;;;613149;23;1472;-75
2023/06/21 00:46:34;;;;;;;3.72;2.90;;;;;;;;;;615391;23;914;-75
2023/06/21 00:46:50;;;;;;;4.10;2.88;;;;;;;;;;617634;23;1341;-74
2023/06/21 00:47:08;;;;;;;4.40;2.70;;;;;;;;;;614207;23;886;-76
2023/06/21 00:47:24;;;;;;;3.38;2.60;;;;;;;;;;621149;23;1483;-74
2023/06/21 00:47:40;;;;;;;3.85;2.80;;;;;;;;;;618815;23;1309;-74
2023/06/21 00:47:57;;;;;;;5.25;3.00;;;;;;;;;;622417;23;1933;-74
2023/06/21 00:48:13;;;;;;;4.57;2.95;;;;;;;;;;619724;23;1383;-74
2023/06/21 00:48:28;;;;;;;3.75;2.80;;;;;;;;;;622823;23;1208;-74
2023/06/21 00:48:44;;;;;;;3.13;2.70;;;;;;;;;;625001;23;1285;-75
2023/06/21 00:49:00;;;;;;;3.33;2.95;;;;;;;;;;623524;23;1229;-74
2023/06/21 00:49:16;;;;;;;5.07;3.10;;;;;;;;;;616736;23;1263;-75
2023/06/21 00:49:33;;;;;;;5.07;2.90;;;;;;;;;;622694;23;1379;-75
2023/06/21 00:49:49;;;;;;;4.15;3.00;;;;;;;;;;624468;23;843;-74
2023/06/21 00:50:08;;;;;;;4.03;2.97;;;;;;;;;;618909;23;815;-75
2023/06/21 00:50:25;;;;;;;4.25;2.60;;;;;;;;;;621516;23;1198;-75
2023/06/21 00:50:41;;;;;;;4.90;3.00;;;;;;;;;;623377;23;1592;-74
2023/06/21 00:50:58;;;;;;;5.25;3.00;;;;;;;;;;625328;23;1394;-75
2023/06/21 00:51:14;;;;;;;4.85;2.72;;;;;;;;;;621385;23;1462;-74
2023/06/21 00:51:32;;;;;;;5.38;2.80;;;;;;;;;;629189;23;1087;-74
2023/06/21 00:51:48;;;;;;;4.03;2.58;;;;;;;;;;625979;23;1560;-75
2023/06/21 00:52:14;;;;;;;4.10;2.67;;;;;;;;;;621314;23;1353;-75
2023/06/21 00:52:31;;;;;;;4.45;3.00;;;;;;;;;;625551;23;1505;-75
2023/06/21 00:52:47;;;;;;;4.53;2.92;;;;;;;;;;626169;23;1268;-75
2023/06/21 00:53:06;;;;;;;4.15;3.00;;;;;;;;;;621661;23;854;-76
2023/06/21 00:53:27;;;;;;;4.18;3.10;;;;;;;;;;620711;23;1279;-74
2023/06/21 00:53:45;;;;;;;4.70;3.13;;;;;;;;;;625718;23;835;-75
2023/06/21 00:54:01;;;;;;;4.03;3.08;;;;;;;;;;623784;23;1439;-75
2023/06/21 00:54:17;;;;;;;5.57;3.20;;;;;;;;;;615283;23;1223;-74
2023/06/21 00:54:35;;;;;;;6.00;3.13;;;;;;;;;;623004;23;1588;-75
2023/06/21 00:55:01;;;;;;;5.22;3.40;;;;;;;;;;626087;23;846;-74
2023/06/21 00:55:19;;;;;;;4.20;3.30;;;;;;;;;;611310;23;1424;-75
2023/06/21 00:55:35;;;;;;;3.72;3.05;;;;;;;;;;620483;23;1167;-75
2023/06/21 00:55:51;;;;;;;4.20;3.15;;;;;;;;;;620799;23;1273;-75
2023/06/21 00:56:13;;;;;;;4.80;3.33;;;;;;;;;;616838;23;1241;-75
2023/06/21 00:56:29;;;;;;;4.82;3.20;;;;;;;;;;624911;23;844;-75
2023/06/21 00:56:50;;;;;;;3.58;3.10;;;;;;;;;;625174;23;1048;-76
2023/06/21 00:57:11;;;;;;;3.63;3.30;;;;;;;;;;623216;23;1176;-75
2023/06/21 00:57:27;;;;;;;4.05;3.13;;;;;;;;;;625688;23;842;-75
2023/06/21 00:57:44;;;;;;;4.03;3.03;;;;;;;;;;628929;23;1570;-74
2023/06/21 00:57:59;;;;;;;6.30;3.20;;;;;;;;;;630659;23;850;-74
2023/06/21 00:58:16;;;;;;;6.93;3.40;;;;;;;;;;624830;23;1355;-74
2023/06/21 00:58:33;;;;;;;6.03;3.40;;;;;;;;;;631900;23;991;-74
2023/06/21 00:58:48;;;;;;;4.72;3.30;;;;;;;;;;630426;23;1481;-75
2023/06/21 00:59:16;;;;;;;5.28;3.40;;;;;;;;;;629042;23;1355;-75
2023/06/21 00:59:31;;;;;;;4.82;3.30;;;;;;;;;;631902;23;1539;-75
2023/06/21 00:59:47;;;;;;;4.85;3.15;;;;;;;;;;627686;23;1215;-74
2023/06/21 01:00:21;;;;;;;4.53;3.07;;;;;;;;;;623632;23;1373;-75
2023/06/21 01:00:37;;;;;;;4.50;3.22;;;;;;;;;;621651;23;1168;-74
2023/06/21 01:00:55;;;;;;;4.80;3.40;;;;;;;;;;617667;23;1338;-74
2023/06/21 01:02:13;;;;;;;5.80;3.60;;;;;;;;;;612952;23;1171;-74
2023/06/21 01:02:19;;;;;;;5.95;3.50;;;;;;;;;;616223;23;875;-75
2023/06/21 01:02:33;;;;;;;7.25;3.63;;;;;;;;;;626429;23;1438;-75
2023/06/21 01:02:51;;;;;;;4.45;3.70;;;;;;;;;;628958;23;1462;-74
2023/06/21 01:03:07;;;;;;;4.05;3.50;;;;;;;;;;623890;23;1367;-74
2023/06/21 01:03:23;;;;;;;4.70;3.60;;;;;;;;;;622797;23;1246;-74
2023/06/21 01:03:39;;;;;;;6.20;3.50;;;;;;;;;;623176;23;870;-72
2023/06/21 01:03:55;;;;;;;6.28;3.42;;;;;;;;;;618836;23;874;-75
2023/06/21 01:04:11;;;;;;;5.13;3.30;;;;;;;;;;619675;23;1415;-74
2023/06/21 01:04:31;;;;;;;5.60;3.30;;;;;;;;;;623025;23;1119;-75
2023/06/21 01:04:49;;;;;;;6.10;3.53;;;;;;;;;;620746;23;1791;-74
2023/06/21 01:05:16;;;;;;;5.00;3.28;;;;;;;;;;621036;23;843;-74
2023/06/21 01:05:33;;;;;;;5.47;3.30;;;;;;;;;;623151;23;1488;-74
2023/06/21 01:06:16;;;;;;;5.82;3.60;;;;;;;;;;619761;23;1463;-74
2023/06/21 01:06:41;;;;;;;5.28;3.65;;;;;;;;;;620277;23;1309;-76
2023/06/21 01:06:59;;;;;;;4.18;3.33;;;;;;;;;;621728;23;1332;-73
2023/06/21 01:07:21;;;;;;;5.32;3.20;;;;;;;;;;613721;23;1328;-74
2023/06/21 01:08:38;;;;;;;3.85;3.22;;;;;;;;;;623798;23;1378;-74
2023/06/21 01:09:11;;;;;;;5.55;3.40;;;;;;;;;;617110;23;1374;-73
2023/06/21 01:10:19;;;;;;;5.25;3.30;;;;;;;;;;621021;23;1339;-74
2023/06/21 01:11:13;;;;;;;6.03;3.50;;;;;;;;;;605832;24;1427;-73
2023/06/21 01:11:51;;;;;;;6.63;3.20;;;;;;;;;;627412;23;1457;-74
2023/06/21 01:12:33;;;;;;;6.97;3.50;;;;;;;;;;623699;23;948;-74
2023/06/21 01:13:09;;;;;;;4.28;2.97;;;;;;;;;;631065;23;949;-74
2023/06/21 01:13:36;;;;;;;4.95;3.40;;;;;;;;;;630962;23;1309;-74
2023/06/21 01:14:09;;;;;;;5.53;3.22;;;;;;;;;;631009;23;1442;-73
2023/06/21 01:14:52;;;;;;;5.63;3.30;;;;;;;;;;626500;23;1181;-73
2023/06/21 01:15:27;;;;;;;5.80;3.30;;;;;;;;;;627822;23;1471;-74
2023/06/21 01:15:49;;;;;;;3.78;2.90;;;;;;;;;;630727;23;1421;-74
2023/06/21 01:16:17;;;;;;;4.25;3.25;;;;;;;;;;628063;23;1450;-74
2023/06/21 01:17:57;;;;;;;3.85;3.15;;;;;;;;;;616378;23;1128;-75
2023/06/21 01:18:20;;;;;;;4.18;3.03;;;;;;;;;;617376;23;1175;-75
2023/06/21 01:18:39;;;;;;;4.38;3.22;;;;;;;;;;628410;23;1369;-74
2023/06/21 01:18:55;;;;;;;5.10;3.17;;;;;;;;;;627691;23;886;-74
2023/06/21 01:19:39;;;;;;;5.07;3.00;;;;;;;;;;618886;23;1462;-74
2023/06/21 01:19:56;;;;;;;3.70;2.90;;;;;;;;;;622562;23;1246;-74
2023/06/21 01:20:14;;;;;;;4.18;3.10;;;;;;;;;;619503;23;1477;-75
2023/06/21 01:20:33;;;;;;;4.38;3.20;;;;;;;;;;621335;23;1275;-74
2023/06/21 01:20:57;;;;;;;3.88;3.20;;;;;;;;;;622258;23;1427;-75
2023/06/21 01:21:18;;;;;;;5.10;3.25;;;;;;;;;;622282;23;1118;-75
2023/06/21 01:21:36;;;;;;;6.30;3.40;;;;;;;;;;621881;23;1522;-75
2023/06/21 01:21:53;;;;;;;7.05;3.50;;;;;;;;;;621485;23;1364;-72
2023/06/21 01:22:21;;;;;;;6.15;3.53;;;;;;;;;;617931;23;1442;-75
2023/06/21 01:22:55;;;;;;;4.97;3.25;;;;;;;;;;620360;23;1394;-74
2023/06/21 01:23:25;;;;;;;5.95;3.20;;;;;;;;;;616918;23;948;-74
2023/06/21 01:24:06;;;;;;;4.93;3.33;;;;;;;;;;623208;23;1188;-74
2023/06/21 01:24:47;;;;;;;6.13;3.28;;;;;;;;;;622676;23;1070;-74
2023/06/21 01:25:50;;;;;;;5.07;3.22;;;;;;;;;;614476;23;1298;-75
2023/06/21 01:27:27;;;;;;;3.90;3.30;;;;;;;;;;617306;23;1509;-74
2023/06/21 01:27:46;;;;;;;4.45;2.92;;;;;;;;;;614363;23;1208;-73
2023/06/21 01:28:26;;;;;;;3.53;3.00;;;;;;;;;;630409;23;1235;-73
2023/06/21 01:29:14;;;;;;;3.42;3.00;;;;;;;;;;632318;23;882;-73
2023/06/21 01:29:35;;;;;;;5.32;3.25;;;;;;;;;;628117;23;1160;-74
2023/06/21 01:29:55;;;;;;;5.38;3.30;;;;;;;;;;630094;23;970;-73
2023/06/21 01:30:14;;;;;;;5.30;3.20;;;;;;;;;;626898;23;1365;-73
2023/06/21 01:30:34;;;;;;;6.82;3.40;;;;;;;;;;629142;23;1450;-75
2023/06/21 01:30:52;;;;;;;4.95;3.38;;;;;;;;;;626606;23;1464;-74
2023/06/21 01:31:15;;;;;;;4.65;3.28;;;;;;;;;;619591;23;1358;-75
2023/06/21 01:31:32;;;;;;;5.55;3.40;;;;;;;;;;622504;23;863;-76
2023/06/21 01:31:52;;;;;;;5.32;3.50;;;;;;;;;;622796;23;1236;-75
2023/06/21 01:32:13;;;;;;;4.60;3.55;;;;;;;;;;621892;23;884;-75
2023/06/21 01:32:30;;;;;;;4.13;3.20;;;;;;;;;;628300;23;910;-74
2023/06/21 01:32:54;;;;;;;3.30;2.97;;;;;;;;;;626306;23;847;-74
2023/06/21 01:33:17;;;;;;;3.10;2.80;;;;;;;;;;625124;23;1223;-75
2023/06/21 01:33:33;;;;;;;3.35;2.90;;;;;;;;;;625668;23;1429;-72
2023/06/21 01:33:50;;;;;;;3.78;2.97;;;;;;;;;;629753;23;948;-74
2023/06/21 01:34:12;;;;;;;3.47;3.00;;;;;;;;;;624712;23;1479;-75
2023/06/21 01:34:30;;;;;;;3.88;3.03;;;;;;;;;;627473;23;1250;-74
2023/06/21 01:34:46;;;;;;;4.28;3.00;;;;;;;;;;626354;23;957;-75
2023/06/21 01:35:03;;;;;;;3.63;2.90;;;;;;;;;;627783;23;1294;-74
2023/06/21 01:35:24;;;;;;;3.45;3.05;;;;;;;;;;622331;23;1403;-75
2023/06/21 01:35:41;;;;;;;3.55;2.85;;;;;;;;;;623716;23;1620;-71
2023/06/21 01:35:57;;;;;;;2.95;2.67;;;;;;;;;;623609;23;882;-74
2023/06/21 01:36:13;;;;;;;3.20;2.90;;;;;;;;;;617111;23;1443;-74
2023/06/21 01:36:29;;;;;;;3.60;3.00;;;;;;;;;;622321;23;1570;-74
2023/06/21 01:36:45;;;;;;;3.75;3.05;;;;;;;;;;622011;23;1289;-73
2023/06/21 01:37:01;;;;;;;3.60;3.10;;;;;;;;;;620018;23;1526;-74
2023/06/21 01:37:20;;;;;;;3.20;2.90;;;;;;;;;;614022;23;1323;-73
2023/06/21 01:37:43;;;;;;;3.03;2.70;;;;;;;;;;622596;23;1537;-74
2023/06/21 01:38:00;;;;;;;4.13;3.15;;;;;;;;;;623106;23;1371;-73
2023/06/21 01:38:15;;;;;;;4.22;3.20;;;;;;;;;;615101;23;1376;-74
2023/06/21 01:38:32;;;;;;;3.72;3.03;;;;;;;;;;621303;23;1416;-73
2023/06/21 01:38:49;;;;;;;4.57;3.13;;;;;;;;;;623388;23;1328;-73
2023/06/21 01:39:15;;;;;;;4.78;3.10;;;;;;;;;;621805;23;1324;-73
2023/06/21 01:39:32;;;;;;;5.57;3.13;;;;;;;;;;620299;23;1337;-72
2023/06/21 01:39:47;;;;;;;4.65;3.10;;;;;;;;;;622398;23;1444;-73
2023/06/21 01:40:09;;;;;;;4.05;3.00;;;;;;;;;;622118;23;851;-73
2023/06/21 01:40:26;;;;;;;3.42;3.13;;;;;;;;;;621222;23;1340;-74
2023/06/21 01:40:42;;;;;;;4.60;3.30;;;;;;;;;;622263;23;1359;-75
2023/06/21 01:40:58;;;;;;;7.55;3.40;;;;;;;;;;620557;23;1358;-74
2023/06/21 01:41:14;;;;;;;6.90;3.50;;;;;;;;;;610850;23;1432;-74
2023/06/21 01:41:32;;;;;;;4.28;3.45;;;;;;;;;;619595;23;847;-74
2023/06/21 01:41:48;;;;;;;5.97;3.40;;;;;;;;;;619500;23;1520;-74
2023/06/21 01:42:14;;;;;;;5.67;3.30;;;;;;;;;;619074;23;871;-74
2023/06/21 01:42:30;;;;;;;4.63;3.30;;;;;;;;;;623624;23;922;-74
2023/06/21 01:42:46;;;;;;;4.87;3.40;;;;;;;;;;618624;23;1243;-74
2023/06/21 01:43:05;;;;;;;5.03;3.33;;;;;;;;;;625981;23;1032;-75
2023/06/21 01:43:24;;;;;;;4.47;3.05;;;;;;;;;;622088;23;1074;-75
2023/06/21 01:43:40;;;;;;;4.10;3.17;;;;;;;;;;631552;23;917;-75
2023/06/21 01:43:56;;;;;;;4.20;3.20;;;;;;;;;;629657;23;1287;-75
2023/06/21 01:44:13;;;;;;;4.50;3.20;;;;;;;;;;623237;23;1504;-76
2023/06/21 01:44:29;;;;;;;5.20;3.30;;;;;;;;;;628585;23;1489;-75
2023/06/21 01:44:53;;;;;;;4.75;3.40;;;;;;;;;;618193;23;1203;-76
2023/06/21 01:45:23;;;;;;;3.65;3.20;;;;;;;;;;622288;23;839;-75
2023/06/21 01:45:39;;;;;;;4.30;3.03;;;;;;;;;;623752;23;1369;-74
2023/06/21 01:45:55;;;;;;;4.15;3.00;;;;;;;;;;621615;23;1329;-73
2023/06/21 01:46:14;;;;;;;3.65;3.10;;;;;;;;;;618589;23;1421;-73
2023/06/21 01:46:30;;;;;;;4.25;3.28;;;;;;;;;;626143;23;1003;-74
2023/06/21 01:46:51;;;;;;;3.90;3.22;;;;;;;;;;622638;23;1345;-74
2023/06/21 01:47:09;;;;;;;3.88;3.13;;;;;;;;;;617407;23;1375;-74
2023/06/21 01:47:25;;;;;;;4.90;3.30;;;;;;;;;;615633;23;1280;-74
2023/06/21 01:47:43;;;;;;;4.53;3.28;;;;;;;;;;617664;23;1525;-74
2023/06/21 01:48:00;;;;;;;4.32;3.45;;;;;;;;;;620821;23;1943;-74
2023/06/21 01:48:26;;;;;;;3.95;3.40;;;;;;;;;;618976;23;1423;-75
2023/06/21 01:49:08;;;;;;;4.53;3.20;;;;;;;;;;624043;23;1433;-74
2023/06/21 01:49:26;;;;;;;4.72;3.45;;;;;;;;;;614258;23;1356;-74
2023/06/21 01:49:42;;;;;;;5.20;3.50;;;;;;;;;;625794;23;1309;-73
2023/06/21 01:49:59;;;;;;;5.20;3.35;;;;;;;;;;626077;23;1392;-74
2023/06/21 01:50:16;;;;;;;5.68;3.45;;;;;;;;;;616005;23;1276;-75
2023/06/21 01:50:33;;;;;;;4.90;3.38;;;;;;;;;;624132;23;1406;-74
2023/06/21 01:51:01;;;;;;;5.00;3.13;;;;;;;;;;626211;23;1523;-74
2023/06/21 01:51:18;;;;;;;5.60;3.40;;;;;;;;;;620488;23;1320;-74
2023/06/21 01:51:38;;;;;;;5.35;3.65;;;;;;;;;;626778;23;1391;-74
2023/06/21 01:51:58;;;;;;;4.68;3.50;;;;;;;;;;620634;23;1526;-74
2023/06/21 01:52:14;;;;;;;5.05;3.60;;;;;;;;;;616176;23;1067;-73
2023/06/21 01:52:32;;;;;;;5.65;3.53;;;;;;;;;;623532;23;902;-73
2023/06/21 01:52:58;;;;;;;5.22;3.47;;;;;;;;;;626032;23;910;-74
2023/06/21 01:53:14;;;;;;;3.80;3.33;;;;;;;;;;620059;23;1486;-73
2023/06/21 01:53:32;;;;;;;3.85;3.30;;;;;;;;;;625069;23;1248;-74
2023/06/21 01:53:48;;;;;;;4.50;3.40;;;;;;;;;;628117;23;1185;-73
2023/06/21 01:54:13;;;;;;;4.40;3.30;;;;;;;;;;621656;23;1312;-74
2023/06/21 01:54:28;;;;;;;4.07;3.20;;;;;;;;;;623602;23;1353;-74
2023/06/21 01:54:44;;;;;;;3.87;3.30;;;;;;;;;;620540;23;1249;-74
2023/06/21 01:55:00;;;;;;;4.25;3.50;;;;;;;;;;618991;23;1242;-73
2023/06/21 01:55:19;;;;;;;6.43;3.70;;;;;;;;;;617342;23;1382;-74
2023/06/21 01:55:36;;;;;;;6.00;3.50;;;;;;;;;;620721;23;1421;-74
2023/06/21 01:55:56;;;;;;;4.30;3.40;;;;;;;;;;620653;23;943;-74
2023/06/21 01:56:17;;;;;;;4.25;3.50;;;;;;;;;;615606;23;1471;-74
2023/06/21 01:56:34;;;;;;;4.40;3.53;;;;;;;;;;626780;23;1382;-74
2023/06/21 01:56:59;;;;;;;5.80;3.67;;;;;;;;;;625186;23;1449;-75
2023/06/21 01:57:15;;;;;;;5.43;3.85;;;;;;;;;;623194;23;1422;-74
2023/06/21 01:57:36;;;;;;;4.40;3.70;;;;;;;;;;625650;23;1373;-73
2023/06/21 01:57:56;;;;;;;4.28;3.45;;;;;;;;;;622515;23;1353;-74
2023/06/21 01:58:16;;;;;;;4.07;3.65;;;;;;;;;;615608;23;1314;-75
2023/06/21 01:58:31;;;;;;;4.28;3.75;;;;;;;;;;620205;23;1489;-74
2023/06/21 01:58:48;;;;;;;4.88;3.70;;;;;;;;;;623128;23;1369;-73
2023/06/21 01:59:14;;;;;;;4.90;3.50;;;;;;;;;;624589;23;1534;-73
2023/06/21 01:59:30;;;;;;;3.45;3.00;;;;;;;;;;625763;23;1464;-74
2023/06/21 01:59:50;;;;;;;5.57;3.22;;;;;;;;;;625705;23;1421;-73
2023/06/21 02:00:18;;;;;;;5.93;3.30;;;;;;;;;;625246;23;1383;-74
2023/06/21 02:00:35;;;;;;;4.75;3.55;;;;;;;;;;623159;23;1338;-73
2023/06/21 02:00:54;;;;;;;4.97;3.58;;;;;;;;;;622273;23;1438;-75
2023/06/21 02:01:18;;;;;;;5.18;3.60;;;;;;;;;;616345;23;1317;-74
2023/06/21 02:01:36;;;;;;;3.83;3.42;;;;;;;;;;617695;23;1351;-73
2023/06/21 02:02:03;;;;;;;7.30;3.45;;;;;;;;;;619913;23;868;-74
2023/06/21 02:02:22;;;;;;;5.07;3.10;;;;;;;;;;615464;23;1062;-75
2023/06/21 02:02:44;;;;;;;5.80;3.30;;;;;;;;;;619226;23;1351;-75
2023/06/21 02:03:15;;;;;;;5.97;3.40;;;;;;;;;;622275;23;1616;-73
2023/06/21 02:03:32;;;;;;;6.28;3.60;;;;;;;;;;624728;23;1224;-73
2023/06/21 02:04:17;;;;;;;4.38;3.50;;;;;;;;;;625602;23;904;-73
2023/06/21 02:04:33;;;;;;;5.82;3.33;;;;;;;;;;622622;23;1308;-73
2023/06/21 02:04:51;;;;;;;5.22;3.50;;;;;;;;;;626814;23;1338;-74
2023/06/21 02:05:16;;;;;;;5.03;3.63;;;;;;;;;;623427;23;1572;-74
2023/06/21 02:05:34;;;;;;;6.60;3.70;;;;;;;;;;628360;23;1275;-74
2023/06/21 02:05:50;;;;;;;5.80;3.58;;;;;;;;;;625758;23;1435;-73
2023/06/21 02:06:13;;;;;;;4.90;3.60;;;;;;;;;;624212;23;1410;-74
2023/06/21 02:06:31;;;;;;;3.85;3.28;;;;;;;;;;627754;23;864;-74
2023/06/21 02:06:48;;;;;;;4.60;3.38;;;;;;;;;;626404;23;1351;-74
2023/06/21 02:07:14;;;;;;;5.90;3.60;;;;;;;;;;625655;23;1260;-74
2023/06/21 02:07:30;;;;;;;4.85;3.50;;;;;;;;;;622160;23;1505;-74
2023/06/21 02:07:47;;;;;;;4.13;3.40;;;;;;;;;;624644;23;1206;-74
2023/06/21 02:08:22;;;;;;;4.72;3.50;;;;;;;;;;622195;23;1295;-74
2023/06/21 02:08:59;;;;;;;4.70;3.55;;;;;;;;;;620083;23;1479;-73
2023/06/21 02:09:15;;;;;;;6.28;3.42;;;;;;;;;;614838;23;1373;-73
2023/06/21 02:09:51;;;;;;;6.25;3.25;;;;;;;;;;620621;23;1251;-73
2023/06/21 02:10:14;;;;;;;3.55;3.22;;;;;;;;;;620660;23;1452;-73
2023/06/21 02:10:30;;;;;;;3.67;3.20;;;;;;;;;;616429;23;1267;-75